Atwater, Minnesota
Current Conditions -  °F | °C
As of 8:12 AM on Tuesday 27 Jan 2015 (Local Time) from KLJF Reporting Station
Overcast Overcast  
Wind Chill: 27°   Ceiling: 1200
Heat Index: 32°   Visibility: 10mi
Dew Point: 30°   Wind: 5mph
Humidity: 93%   Direction: 140°SE
Pressure: 30.12"   Gusts: NA
Location:  45.14°N, 94.78°W
Report Text: KLJF 271412Z AUTO 14004KT 10SM OVC012 00/M01 A3012 RMK AO2
Loading
Personal Weather Stations






























Interactive Weather Map New forecast layout! Learn more

10-Day Weather Forecast

Advertisements
Track Severe Weather on mobile